Current Weather

Downtown Manhattan/Wall St

New York, Downtown Manhattan/Wall St (KJRB)

Report from: Monday, June 17, 2024 4:56 AM EDT
Current time: Monday, June 17, 2024 6:06 AM EDT

Nearby weather – Weather history – Daily summaries
Weather forecast

Temperature18.9°C (66.0°F)
Dew point17.2°C (63.0°F)
Winds Calm
Visibility10 mi. (16.1 km)
Clouds Sky clear
Altimeter30.22 in.Hg (1023 mB)
Relative humidity90 %
Density altitude394 ft. (120 m)
Sea-level pressure102.3 kPa (1023 mB, 30.21 in.Hg)
Remarks Fully automated report
System requires maintenance
Automated weather observing station with precipitation discriminator
Precipitation sensor not operating
Pressure falling more quickly
Flight conditions Visual Meteorological Conditions
Raw dataKJRB 170856Z AUTO 00000KT 10SM CLR 19/17 A3022 RMK AO2 SLP231 6//// T01890172 58004 PNO $
An error has occurred. This application may no longer respond until reloaded. Reload 🗙